Preview of NWS' New Version of Forecast
This preview is not operational and should not be used for support decisions.

Terminal Aerodrome Forecast (TAF)

Issued by National Weather Service (NWS)

                            
000
FTUS42 KMFL 151539 AAA
TAFMIA
TAF AMD
KMIA 151539Z 1516/1618 33011G18KT P6SM FEW030 SCT040
     FM160300 35006KT P6SM FEW040=